createdAt,value
2023-03-29T00:00:32.911Z,0.21
2023-03-29T00:03:02.601Z,0.28
2023-03-29T00:05:33.941Z,0.19
2023-03-29T00:08:04.623Z,0.20
2023-03-29T00:10:33.671Z,0.26
2023-03-29T00:13:02.565Z,0.26
2023-03-29T00:15:30.293Z,0.25
2023-03-29T00:17:58.205Z,0.10
2023-03-29T00:20:25.702Z,0.08
2023-03-29T00:22:53.390Z,-0.20
2023-03-29T00:25:20.945Z,0.11
2023-03-29T00:27:48.508Z,0.16
2023-03-29T00:30:16.753Z,0.15
2023-03-29T00:32:44.375Z,0.18
2023-03-29T00:35:12.307Z,0.15
2023-03-29T00:37:41.365Z,0.26
2023-03-29T00:40:11.741Z,0.21
2023-03-29T00:42:39.430Z,0.22
2023-03-29T00:45:20.419Z,0.23
2023-03-29T00:47:52.045Z,-0.21
2023-03-29T00:50:33.178Z,0.18
2023-03-29T00:53:06.735Z,0.21
2023-03-29T00:55:43.649Z,0.13
2023-03-29T00:58:15.055Z,0.18
2023-03-29T01:00:52.382Z,0.18
2023-03-29T01:03:24.880Z,-0.19
2023-03-29T01:06:00.334Z,0.02
2023-03-29T01:08:34.801Z,0.23
2023-03-29T01:11:08.649Z,-0.15
2023-03-29T01:13:52.997Z,0.21
2023-03-29T01:16:22.077Z,0.19
2023-03-29T01:18:50.237Z,0.24
2023-03-29T01:21:29.343Z,0.25
2023-03-29T01:24:06.701Z,0.16
2023-03-29T01:26:44.016Z,0.09
2023-03-29T01:29:20.499Z,0.05
2023-03-29T01:31:54.898Z,0.03
2023-03-29T01:34:28.098Z,-0.12
2023-03-29T01:37:24.718Z,-0.15
2023-03-29T01:39:53.069Z,-0.19
2023-03-29T01:42:42.318Z,-0.16
2023-03-29T01:45:21.837Z,-0.20
2023-03-29T01:48:01.904Z,-0.30
2023-03-29T01:50:54.311Z,-0.44
2023-03-29T01:53:46.926Z,-0.31
2023-03-29T01:56:19.580Z,-0.36
2023-03-29T01:58:54.981Z,-0.40
2023-03-29T02:01:28.362Z,-0.42
2023-03-29T02:04:03.134Z,-0.52
2023-03-29T02:06:36.089Z,-0.50
2023-03-29T02:09:05.048Z,-0.70
2023-03-29T02:11:35.355Z,-0.64
2023-03-29T02:14:03.509Z,-0.97
2023-03-29T02:16:39.123Z,-0.71
2023-03-29T02:19:09.859Z,-0.94
2023-03-29T02:21:51.811Z,-0.80
2023-03-29T02:24:21.522Z,-0.88
2023-03-29T02:26:49.653Z,-1.04
2023-03-29T02:29:17.605Z,-1.06
2023-03-29T02:31:53.263Z,-0.96
2023-03-29T02:34:26.843Z,-1.01
2023-03-29T02:37:18.850Z,-1.19
2023-03-29T02:39:50.306Z,-0.99
2023-03-29T02:42:20.463Z,-0.97
2023-03-29T02:44:51.161Z,-0.99
2023-03-29T02:47:32.102Z,-1.12
2023-03-29T02:50:00.571Z,-1.22
2023-03-29T02:52:35.797Z,-1.22
2023-03-29T02:55:08.599Z,-1.29
2023-03-29T02:57:38.389Z,-1.17
2023-03-29T03:00:10.546Z,-1.13
2023-03-29T03:02:38.714Z,-1.27
2023-03-29T03:05:07.226Z,-1.32
2023-03-29T03:07:34.931Z,-1.28
2023-03-29T03:10:03.994Z,-1.28
2023-03-29T03:12:32.014Z,-1.47
2023-03-29T03:14:59.653Z,-1.22
2023-03-29T03:17:27.454Z,-1.24
2023-03-29T03:19:55.054Z,-1.42
2023-03-29T03:22:22.769Z,-1.57
2023-03-29T03:24:50.555Z,-1.29
2023-03-29T03:27:18.258Z,-1.35
2023-03-29T03:29:45.895Z,-1.31
2023-03-29T03:32:16.291Z,-1.34
2023-03-29T03:34:45.818Z,-1.56
2023-03-29T03:37:13.303Z,-1.59
2023-03-29T03:39:41.611Z,-1.67
2023-03-29T03:42:09.331Z,-1.78
2023-03-29T03:44:39.515Z,-1.80
2023-03-29T03:47:07.898Z,-1.57
2023-03-29T03:49:36.118Z,-1.58
2023-03-29T03:52:03.774Z,-1.58
2023-03-29T03:54:32.076Z,-1.56
2023-03-29T03:57:02.416Z,-1.58
2023-03-29T03:59:30.098Z,-1.51
2023-03-29T04:01:59.929Z,-1.51
2023-03-29T04:04:28.039Z,-1.55
2023-03-29T04:07:02.575Z,-1.59
2023-03-29T04:09:31.980Z,-1.57
2023-03-29T04:12:01.550Z,-1.92
2023-03-29T04:14:31.714Z,-1.55
2023-03-29T04:17:00.191Z,-1.59
2023-03-29T04:19:28.800Z,-1.62
2023-03-29T04:21:56.368Z,-1.66
2023-03-29T04:24:25.061Z,-1.66
2023-03-29T04:26:56.002Z,-1.61
2023-03-29T04:29:23.818Z,-1.64
2023-03-29T04:31:52.055Z,-1.60
2023-03-29T04:34:19.811Z,-1.59
2023-03-29T04:36:50.252Z,-1.54
2023-03-29T04:39:18.133Z,-1.54
2023-03-29T04:41:47.292Z,-1.51
2023-03-29T04:44:16.223Z,-1.54
2023-03-29T04:46:43.804Z,-1.39
2023-03-29T04:49:11.799Z,-1.36
2023-03-29T04:51:39.782Z,-1.34
2023-03-29T04:54:07.678Z,-1.34
2023-03-29T04:56:35.917Z,-1.30
2023-03-29T04:59:07.213Z,-1.29
2023-03-29T05:01:35.175Z,-1.25
2023-03-29T05:04:03.418Z,-1.19
2023-03-29T05:06:31.828Z,-1.20
2023-03-29T05:08:59.291Z,-1.05
2023-03-29T05:11:27.693Z,-0.95
2023-03-29T05:13:57.286Z,-0.94
2023-03-29T05:16:26.443Z,-0.76
2023-03-29T05:18:55.423Z,-0.72
2023-03-29T05:21:24.083Z,-0.65
2023-03-29T05:23:52.349Z,-0.53
2023-03-29T05:26:23.443Z,-0.41
2023-03-29T05:28:51.939Z,-0.48
2023-03-29T05:31:20.348Z,-0.10
2023-03-29T05:33:49.380Z,-0.03
2023-03-29T05:36:19.287Z,-0.29
2023-03-29T05:38:47.216Z,-0.28
2023-03-29T05:41:16.024Z,0.21
2023-03-29T05:43:45.817Z,0.27
2023-03-29T05:46:13.722Z,0.31
2023-03-29T05:48:42.851Z,0.34
2023-03-29T05:51:16.554Z,0.34
2023-03-29T05:53:55.741Z,0.38
2023-03-29T05:56:27.742Z,0.66
2023-03-29T05:58:58.781Z,0.82
2023-03-29T06:01:26.738Z,0.83
2023-03-29T06:03:56.425Z,0.92
2023-03-29T06:06:24.435Z,1.06
2023-03-29T06:08:52.401Z,1.25
2023-03-29T06:11:22.286Z,1.30
2023-03-29T06:13:51.868Z,1.56
2023-03-29T06:16:19.906Z,1.72
2023-03-29T06:18:47.994Z,1.36
2023-03-29T06:21:15.911Z,1.60
2023-03-29T06:23:43.836Z,1.86
2023-03-29T06:26:12.836Z,1.94
2023-03-29T06:28:41.862Z,2.27
2023-03-29T06:31:10.352Z,2.33
2023-03-29T06:33:38.867Z,1.88
2023-03-29T06:36:07.574Z,2.16
2023-03-29T06:38:35.354Z,2.45
2023-03-29T06:41:06.050Z,2.36
2023-03-29T06:43:34.902Z,2.73
2023-03-29T06:46:11.645Z,2.39
2023-03-29T06:48:40.977Z,2.52
2023-03-29T06:51:08.925Z,2.81
2023-03-29T06:53:36.746Z,2.56
2023-03-29T06:56:09.378Z,2.87
2023-03-29T06:58:38.166Z,3.18
2023-03-29T07:01:07.147Z,2.95
2023-03-29T07:03:39.219Z,2.92
2023-03-29T07:06:10.184Z,3.03
2023-03-29T07:08:46.992Z,3.67
2023-03-29T07:11:15.645Z,3.86
2023-03-29T07:13:44.619Z,3.87
2023-03-29T07:16:13.813Z,4.09
2023-03-29T07:18:44.311Z,4.26
2023-03-29T07:21:14.782Z,3.98
2023-03-29T07:23:42.669Z,3.62
2023-03-29T07:26:12.084Z,3.81
2023-03-29T07:28:40.849Z,3.84
2023-03-29T07:31:11.376Z,4.15
2023-03-29T07:33:40.137Z,4.01
2023-03-29T07:36:08.850Z,4.43
2023-03-29T07:38:37.908Z,4.29
2023-03-29T07:41:08.222Z,5.01
2023-03-29T07:43:36.550Z,5.30
2023-03-29T07:46:05.495Z,5.50
2023-03-29T07:48:33.890Z,5.29
2023-03-29T07:51:03.839Z,5.02
2023-03-29T07:53:32.334Z,4.91
2023-03-29T07:56:01.747Z,5.21
2023-03-29T07:58:31.552Z,5.39
2023-03-29T08:01:02.608Z,5.87
2023-03-29T08:03:36.202Z,5.99
2023-03-29T08:06:06.343Z,6.02
2023-03-29T08:08:34.684Z,6.02
2023-03-29T08:11:02.915Z,5.35
2023-03-29T08:13:30.946Z,5.99
2023-03-29T08:16:02.044Z,5.96
2023-03-29T08:18:31.122Z,6.20
2023-03-29T08:21:00.467Z,6.21
2023-03-29T08:23:28.139Z,6.21
2023-03-29T08:25:58.177Z,6.19
2023-03-29T08:28:26.715Z,5.59
2023-03-29T08:30:54.826Z,5.48
2023-03-29T08:33:22.565Z,5.97
2023-03-29T08:35:50.817Z,6.13
2023-03-29T08:38:19.099Z,6.37
2023-03-29T08:40:48.843Z,6.08
2023-03-29T08:43:53.368Z,6.10
2023-03-29T08:46:52.548Z,6.65
2023-03-29T08:49:22.644Z,6.37
2023-03-29T08:51:57.884Z,6.26
2023-03-29T08:54:29.230Z,6.70
2023-03-29T08:57:10.982Z,6.83
2023-03-29T08:59:41.619Z,6.88
2023-03-29T09:02:17.970Z,6.51
2023-03-29T09:04:48.983Z,6.88
2023-03-29T09:07:17.771Z,5.72
2023-03-29T09:09:46.471Z,6.85
2023-03-29T09:12:17.174Z,7.25
2023-03-29T09:15:09.501Z,7.21
2023-03-29T09:17:56.628Z,7.36
2023-03-29T09:20:43.659Z,7.46
2023-03-29T09:23:23.418Z,8.00
2023-03-29T09:26:25.344Z,7.73
2023-03-29T09:29:13.208Z,7.81
2023-03-29T09:31:44.841Z,8.15
2023-03-29T09:34:17.678Z,8.12
2023-03-29T09:36:56.841Z,8.19
2023-03-29T09:39:27.331Z,8.41
2023-03-29T09:42:08.057Z,8.13
2023-03-29T09:44:41.484Z,7.91
2023-03-29T09:47:19.926Z,8.62
2023-03-29T09:49:52.309Z,8.38
2023-03-29T09:52:21.055Z,8.55
2023-03-29T09:54:49.599Z,8.37
2023-03-29T09:57:20.237Z,8.10
2023-03-29T09:59:50.601Z,8.33
2023-03-29T10:02:21.151Z,7.83
2023-03-29T10:05:01.025Z,8.46
2023-03-29T10:07:39.924Z,8.10
2023-03-29T10:10:10.576Z,8.27
2023-03-29T10:12:38.108Z,8.37
2023-03-29T10:15:09.927Z,8.82
2023-03-29T10:17:40.637Z,9.16
2023-03-29T10:20:16.898Z,8.07
2023-03-29T10:22:54.410Z,8.24
2023-03-29T10:25:27.262Z,7.72
2023-03-29T10:28:02.977Z,8.28
2023-03-29T10:30:35.064Z,8.28
2023-03-29T10:33:04.097Z,9.03
2023-03-29T10:35:44.426Z,9.41
2023-03-29T10:38:24.502Z,9.45
2023-03-29T10:40:53.364Z,9.68
2023-03-29T10:43:29.544Z,9.51
2023-03-29T10:46:08.114Z,8.48
2023-03-29T10:48:36.860Z,9.56
2023-03-29T10:51:06.081Z,9.22
2023-03-29T10:53:36.173Z,8.88
2023-03-29T10:56:12.104Z,9.70
2023-03-29T10:59:09.336Z,10.02
2023-03-29T11:02:02.363Z,10.33
2023-03-29T11:04:52.777Z,9.38
2023-03-29T11:07:29.617Z,10.48
2023-03-29T11:09:57.555Z,10.60
2023-03-29T11:12:34.175Z,9.72
2023-03-29T11:15:29.470Z,9.25
2023-03-29T11:18:16.201Z,9.92
2023-03-29T11:21:10.718Z,10.00
2023-03-29T11:23:54.540Z,9.83
2023-03-29T11:26:30.729Z,10.43
2023-03-29T11:29:22.874Z,10.97
2023-03-29T11:32:11.398Z,10.70
2023-03-29T11:34:57.858Z,10.52
2023-03-29T11:37:41.127Z,10.09
2023-03-29T11:40:46.527Z,10.78
2023-03-29T11:43:30.407Z,11.00
2023-03-29T11:46:37.854Z,10.47
2023-03-29T11:49:21.487Z,11.15
2023-03-29T11:52:06.131Z,9.48
2023-03-29T11:54:41.160Z,9.23
2023-03-29T11:57:22.004Z,10.56
2023-03-29T12:00:01.855Z,10.75
2023-03-29T12:02:50.754Z,10.94
2023-03-29T12:05:21.888Z,10.89
2023-03-29T12:07:59.219Z,10.78
2023-03-29T12:10:36.608Z,11.26
2023-03-29T12:13:10.534Z,11.37
2023-03-29T12:15:43.157Z,11.64
2023-03-29T12:18:33.078Z,11.69
2023-03-29T12:21:12.356Z,11.72
2023-03-29T12:23:43.542Z,12.74
2023-03-29T12:26:23.483Z,10.73
2023-03-29T12:29:29.835Z,10.30
2023-03-29T12:32:26.460Z,10.76
2023-03-29T12:35:13.117Z,10.88
2023-03-29T12:38:02.658Z,10.46
2023-03-29T12:40:46.467Z,11.51
2023-03-29T12:43:23.948Z,11.41
2023-03-29T12:46:01.349Z,11.63
2023-03-29T12:48:30.345Z,10.54
2023-03-29T12:51:03.598Z,11.46
2023-03-29T12:53:37.086Z,11.23
2023-03-29T12:56:08.456Z,10.57
2023-03-29T12:58:39.435Z,10.87
2023-03-29T13:01:23.886Z,10.71
2023-03-29T13:04:01.433Z,10.80
2023-03-29T13:06:50.519Z,11.11
2023-03-29T13:09:21.957Z,10.58
2023-03-29T13:11:59.716Z,10.94
2023-03-29T13:14:31.883Z,11.20
2023-03-29T13:17:18.155Z,11.54
2023-03-29T13:20:09.306Z,11.11
2023-03-29T13:22:58.349Z,11.83
2023-03-29T13:26:11.804Z,12.11
2023-03-29T13:28:45.531Z,12.32
2023-03-29T13:31:44.224Z,12.76
2023-03-29T13:34:21.186Z,12.71
2023-03-29T13:37:13.037Z,12.71
2023-03-29T13:39:50.731Z,12.72
2023-03-29T13:42:20.307Z,11.86
2023-03-29T13:44:51.717Z,12.47
2023-03-29T13:47:19.401Z,12.54
2023-03-29T13:49:56.901Z,12.86
2023-03-29T13:52:30.617Z,13.12
2023-03-29T13:55:17.650Z,12.88
2023-03-29T13:58:21.030Z,12.65
2023-03-29T14:01:00.559Z,12.55
2023-03-29T14:03:32.536Z,11.81
2023-03-29T14:06:03.197Z,11.49
2023-03-29T14:08:36.761Z,11.80
2023-03-29T14:14:08.554Z,12.17
2023-03-29T14:16:39.190Z,12.17
2023-03-29T14:19:13.495Z,12.64
2023-03-29T14:21:42.916Z,12.66
2023-03-29T14:24:13.187Z,12.78
2023-03-29T14:26:46.078Z,12.33
2023-03-29T14:29:14.533Z,12.65
2023-03-29T14:31:43.009Z,12.43
2023-03-29T14:34:16.711Z,11.79
2023-03-29T14:36:46.737Z,12.37
2023-03-29T14:39:14.360Z,12.62
2023-03-29T14:41:48.556Z,12.05
2023-03-29T14:44:16.649Z,11.81
2023-03-29T14:46:46.849Z,11.25
2023-03-29T14:49:20.656Z,11.25
2023-03-29T14:51:50.464Z,11.45
2023-03-29T14:54:29.922Z,11.16
2023-03-29T14:56:58.179Z,11.34
2023-03-29T14:59:34.990Z,11.65
2023-03-29T15:02:03.539Z,12.03
2023-03-29T15:04:35.736Z,11.43
2023-03-29T15:07:05.010Z,11.52
2023-03-29T15:09:34.543Z,11.01
2023-03-29T15:12:03.619Z,10.91
2023-03-29T15:14:33.933Z,10.95
2023-03-29T15:17:07.177Z,11.02
2023-03-29T15:19:36.422Z,11.06
2023-03-29T15:22:11.299Z,11.17
2023-03-29T15:24:47.572Z,11.04
2023-03-29T15:27:18.911Z,11.33
2023-03-29T15:29:47.410Z,11.39
2023-03-29T15:32:23.405Z,11.78
2023-03-29T15:35:03.494Z,11.47
2023-03-29T15:37:31.467Z,12.12
2023-03-29T15:39:59.724Z,10.98
2023-03-29T15:42:27.380Z,10.84
2023-03-29T15:44:56.471Z,10.45
2023-03-29T15:47:24.379Z,11.29
2023-03-29T15:49:52.044Z,11.50
2023-03-29T15:52:19.577Z,10.73
2023-03-29T15:54:47.307Z,10.73
2023-03-29T15:57:18.526Z,11.11
2023-03-29T15:59:46.415Z,10.84
2023-03-29T16:02:20.234Z,10.85
2023-03-29T16:04:48.105Z,11.16
2023-03-29T16:07:18.107Z,10.96
2023-03-29T16:09:48.728Z,10.91
2023-03-29T16:12:16.955Z,10.46
2023-03-29T16:14:45.106Z,10.68
2023-03-29T16:17:12.706Z,10.65
2023-03-29T16:19:40.650Z,10.59
2023-03-29T16:22:08.417Z,10.44
2023-03-29T16:24:36.460Z,10.42
2023-03-29T16:27:04.470Z,10.35
2023-03-29T16:29:32.305Z,10.16
2023-03-29T16:32:00.142Z,10.09
2023-03-29T16:34:33.564Z,10.06
2023-03-29T16:37:04.482Z,10.02
2023-03-29T16:39:32.284Z,9.74
2023-03-29T16:41:59.891Z,9.96
2023-03-29T16:44:28.023Z,9.90
2023-03-29T16:46:58.417Z,9.85
2023-03-29T16:49:26.099Z,9.78
2023-03-29T16:51:53.712Z,9.74
2023-03-29T16:54:21.568Z,9.68
2023-03-29T16:56:49.068Z,9.63
2023-03-29T16:59:16.662Z,9.57
2023-03-29T17:01:44.853Z,9.48
2023-03-29T17:04:12.320Z,9.33
2023-03-29T17:06:39.936Z,9.34
2023-03-29T17:09:08.224Z,9.25
2023-03-29T17:11:36.144Z,9.13
2023-03-29T17:14:03.872Z,9.03
2023-03-29T17:16:31.784Z,8.90
2023-03-29T17:19:02.373Z,8.78
2023-03-29T17:21:29.974Z,8.68
2023-03-29T17:23:57.907Z,8.58
2023-03-29T17:26:26.086Z,8.50
2023-03-29T17:28:53.668Z,8.40
2023-03-29T17:31:21.931Z,8.33
2023-03-29T17:33:52.205Z,8.27
2023-03-29T17:36:23.983Z,8.28
2023-03-29T17:38:51.944Z,8.25
2023-03-29T17:41:20.296Z,8.19
2023-03-29T17:43:48.083Z,8.12
2023-03-29T17:46:16.859Z,8.05
2023-03-29T17:48:46.130Z,7.96
2023-03-29T17:51:14.082Z,7.80
2023-03-29T17:53:42.265Z,7.88
2023-03-29T17:56:10.107Z,7.83
2023-03-29T17:58:37.656Z,7.50
2023-03-29T18:01:13.133Z,7.83
2023-03-29T18:03:41.791Z,7.79
2023-03-29T18:06:09.310Z,7.73
2023-03-29T18:08:37.582Z,7.69
2023-03-29T18:11:11.606Z,7.66
2023-03-29T18:13:39.964Z,7.67
2023-03-29T18:16:08.999Z,7.66
2023-03-29T18:18:37.445Z,7.66
2023-03-29T18:21:06.933Z,7.68
2023-03-29T18:23:35.684Z,7.68
2023-03-29T18:26:04.493Z,7.70
2023-03-29T18:28:32.519Z,7.68
2023-03-29T18:31:00.995Z,7.72
2023-03-29T18:33:30.300Z,7.67
2023-03-29T18:35:58.021Z,7.62
2023-03-29T18:38:27.171Z,7.62
2023-03-29T18:40:55.120Z,7.58
2023-03-29T18:43:23.153Z,7.53
2023-03-29T18:45:51.363Z,7.52
2023-03-29T18:48:19.113Z,7.55
2023-03-29T18:50:47.031Z,7.64
2023-03-29T18:53:15.941Z,7.67
2023-03-29T18:55:44.248Z,7.68
2023-03-29T18:58:13.386Z,7.68
2023-03-29T19:00:42.421Z,7.69
2023-03-29T19:03:10.472Z,7.71
2023-03-29T19:05:39.295Z,7.72
2023-03-29T19:08:08.567Z,7.41
2023-03-29T19:10:38.622Z,7.73
2023-03-29T19:13:06.529Z,7.73
2023-03-29T19:15:34.970Z,7.46
2023-03-29T19:18:02.788Z,7.72
2023-03-29T19:20:30.969Z,7.72
2023-03-29T19:22:58.980Z,7.43
2023-03-29T19:25:26.723Z,7.71
2023-03-29T19:27:54.983Z,7.68
2023-03-29T19:30:23.449Z,7.69
2023-03-29T19:32:52.160Z,7.70
2023-03-29T19:35:20.429Z,7.71
2023-03-29T19:37:48.265Z,7.59
2023-03-29T19:40:16.105Z,7.67
2023-03-29T19:42:43.712Z,7.67
2023-03-29T19:45:12.371Z,7.65
2023-03-29T19:47:42.304Z,7.65
2023-03-29T19:50:12.325Z,7.63
2023-03-29T19:52:41.166Z,7.32
2023-03-29T19:55:08.812Z,7.62
2023-03-29T19:57:37.169Z,7.57
2023-03-29T20:00:08.130Z,7.55
2023-03-29T20:02:41.731Z,7.57
2023-03-29T20:05:09.840Z,7.53
2023-03-29T20:07:37.284Z,7.52
2023-03-29T20:10:05.695Z,7.49
2023-03-29T20:12:33.461Z,7.45
2023-03-29T20:15:01.102Z,7.45
2023-03-29T20:17:29.076Z,7.43
2023-03-29T20:19:57.534Z,7.45
2023-03-29T20:22:26.418Z,7.40
2023-03-29T20:24:54.134Z,7.37
2023-03-29T20:27:22.524Z,7.39
2023-03-29T20:29:50.680Z,7.37
2023-03-29T20:32:18.307Z,7.41
2023-03-29T20:34:46.214Z,7.44
2023-03-29T20:37:14.645Z,7.43
2023-03-29T20:39:42.258Z,7.38
2023-03-29T20:42:11.254Z,7.13
2023-03-29T20:44:39.213Z,7.44
2023-03-29T20:47:08.156Z,7.46
2023-03-29T20:49:39.569Z,7.41
2023-03-29T20:52:18.155Z,7.42
2023-03-29T20:54:45.883Z,7.43
2023-03-29T20:57:16.228Z,7.41
2023-03-29T20:59:44.440Z,7.41
2023-03-29T21:02:19.026Z,7.41
2023-03-29T21:04:51.941Z,7.42
2023-03-29T21:07:21.494Z,7.40
2023-03-29T21:09:50.078Z,7.08
2023-03-29T21:12:17.815Z,7.36
2023-03-29T21:14:47.422Z,7.38
2023-03-29T21:17:15.323Z,7.39
2023-03-29T21:19:42.729Z,7.38
2023-03-29T21:22:13.780Z,7.36
2023-03-29T21:24:41.406Z,7.08
2023-03-29T21:27:09.116Z,7.35
2023-03-29T21:29:36.846Z,7.36
2023-03-29T21:32:04.644Z,7.33
2023-03-29T21:34:32.167Z,7.36
2023-03-29T21:36:59.860Z,7.38
2023-03-29T21:39:27.427Z,7.35
2023-03-29T21:41:55.085Z,7.36
2023-03-29T21:44:22.855Z,7.35
2023-03-29T21:46:50.453Z,7.36
2023-03-29T21:49:18.342Z,7.38
2023-03-29T21:51:46.517Z,7.37
2023-03-29T21:54:14.070Z,7.37
2023-03-29T21:56:41.656Z,7.36
2023-03-29T21:59:09.418Z,7.38
2023-03-29T22:01:37.114Z,7.34
2023-03-29T22:04:05.100Z,7.33
2023-03-29T22:06:32.620Z,7.33
2023-03-29T22:09:00.840Z,7.29
2023-03-29T22:11:28.696Z,7.29
2023-03-29T22:13:56.726Z,7.01
2023-03-29T22:16:25.869Z,7.26
2023-03-29T22:18:54.365Z,7.28
2023-03-29T22:21:24.921Z,7.20
2023-03-29T22:23:55.474Z,7.26
2023-03-29T22:26:27.581Z,7.30
2023-03-29T22:28:56.199Z,7.31
2023-03-29T22:31:25.332Z,7.32
2023-03-29T22:33:53.790Z,7.31
2023-03-29T22:36:29.924Z,7.29
2023-03-29T22:38:58.057Z,7.26
2023-03-29T22:41:27.645Z,7.27
2023-03-29T22:43:57.934Z,7.20
2023-03-29T22:46:26.349Z,7.22
2023-03-29T22:48:53.971Z,7.02
2023-03-29T22:51:21.770Z,7.09
2023-03-29T22:53:49.766Z,6.76
2023-03-29T22:56:17.668Z,7.05
2023-03-29T22:58:45.798Z,7.04
2023-03-29T23:01:13.631Z,7.02
2023-03-29T23:03:41.695Z,7.01
2023-03-29T23:06:09.266Z,6.70
2023-03-29T23:08:37.188Z,6.95
2023-03-29T23:11:05.122Z,6.86
2023-03-29T23:13:33.573Z,6.86
2023-03-29T23:16:03.657Z,6.84
2023-03-29T23:18:34.794Z,6.83
2023-03-29T23:21:05.602Z,6.85
2023-03-29T23:23:33.948Z,6.82
2023-03-29T23:26:02.499Z,6.53
2023-03-29T23:28:31.397Z,6.83
2023-03-29T23:31:03.056Z,6.76
2023-03-29T23:33:35.196Z,6.74
2023-03-29T23:36:04.867Z,6.73
2023-03-29T23:38:34.584Z,6.49
2023-03-29T23:41:04.892Z,6.48
2023-03-29T23:43:35.431Z,6.78
2023-03-29T23:46:09.751Z,6.77
2023-03-29T23:48:38.619Z,6.77
2023-03-29T23:51:08.060Z,6.76
2023-03-29T23:53:35.737Z,6.76
2023-03-29T23:56:05.094Z,6.74
2023-03-29T23:58:35.168Z,6.71
